createdAt,value
2017-11-10T00:01:02.357Z,20.91
2017-11-10T00:02:11.671Z,20.87
2017-11-10T00:03:20.651Z,20.87
2017-11-10T00:04:29.954Z,20.91
2017-11-10T00:05:39.273Z,20.8
2017-11-10T00:06:48.906Z,20.87
2017-11-10T00:07:58.541Z,20.87
2017-11-10T00:09:08.177Z,20.79
2017-11-10T00:10:17.816Z,20.85
2017-11-10T00:11:27.460Z,20.87
2017-11-10T00:12:37.094Z,20.91
2017-11-10T00:13:47.057Z,20.89
2017-11-10T00:14:56.386Z,20.87
2017-11-10T00:16:05.717Z,20.85
2017-11-10T00:17:15.360Z,20.89
2017-11-10T00:18:24.334Z,20.84
2017-11-10T00:19:34.307Z,20.87
2017-11-10T00:20:43.633Z,20.87
2017-11-10T00:21:52.934Z,20.91
2017-11-10T00:23:01.909Z,20.87
2017-11-10T00:24:10.880Z,20.88
2017-11-10T00:25:20.192Z,20.87
2017-11-10T00:26:29.502Z,20.8
2017-11-10T00:27:38.503Z,20.84
2017-11-10T00:28:48.156Z,20.84
2017-11-10T00:29:57.136Z,20.85
2017-11-10T00:31:06.785Z,20.84
2017-11-10T00:32:16.086Z,20.82
2017-11-10T00:33:25.055Z,20.85
2017-11-10T00:34:34.103Z,20.91
2017-11-10T00:35:42.753Z,20.88
2017-11-10T00:36:51.721Z,20.88
2017-11-10T00:38:01.038Z,20.84
2017-11-10T00:39:10.377Z,20.84
2017-11-10T00:40:20.033Z,20.8
2017-11-10T00:41:30.009Z,20.87
2017-11-10T00:42:39.320Z,20.84
2017-11-10T00:43:48.964Z,20.82
2017-11-10T00:44:58.282Z,20.94
2017-11-10T00:46:07.586Z,20.82
2017-11-10T00:47:16.894Z,20.79
2017-11-10T00:48:26.539Z,20.84
2017-11-10T00:49:35.509Z,20.87
2017-11-10T00:50:44.816Z,20.82
2017-11-10T00:51:53.470Z,20.88
2017-11-10T00:53:02.787Z,20.77
2017-11-10T00:54:12.110Z,20.82
2017-11-10T00:55:22.089Z,20.85
2017-11-10T00:56:31.748Z,20.88
2017-11-10T00:57:40.800Z,20.84
2017-11-10T00:58:49.770Z,20.79
2017-11-10T00:59:59.423Z,20.85
2017-11-10T01:01:08.754Z,20.79
2017-11-10T01:02:17.740Z,20.82
2017-11-10T01:03:27.379Z,20.82
2017-11-10T01:04:36.677Z,20.87
2017-11-10T01:05:46.320Z,20.8
2017-11-10T01:06:55.297Z,20.87
2017-11-10T01:08:04.598Z,20.89
2017-11-10T01:09:13.897Z,20.84
2017-11-10T01:10:23.227Z,20.85
2017-11-10T01:11:32.873Z,20.82
2017-11-10T01:12:41.860Z,20.85
2017-11-10T01:13:51.372Z,20.88
2017-11-10T01:15:00.355Z,20.88
2017-11-10T01:16:09.669Z,20.85
2017-11-10T01:17:18.642Z,20.85
2017-11-10T01:18:27.967Z,20.8
2017-11-10T01:19:36.986Z,20.87
2017-11-10T01:20:45.934Z,20.79
2017-11-10T01:21:54.907Z,20.87
2017-11-10T01:23:04.218Z,20.84
2017-11-10T01:24:13.512Z,20.84
2017-11-10T01:25:22.179Z,20.85
2017-11-10T01:26:32.160Z,20.85
2017-11-10T01:27:41.131Z,20.89
2017-11-10T01:28:51.100Z,20.88
2017-11-10T01:30:00.071Z,20.84
2017-11-10T01:31:09.057Z,20.92
2017-11-10T01:32:18.686Z,20.77
2017-11-10T01:33:27.661Z,20.85
2017-11-10T01:34:37.292Z,20.87
2017-11-10T01:35:47.276Z,20.84
2017-11-10T01:36:57.245Z,20.82
2017-11-10T01:38:07.207Z,20.84
2017-11-10T01:39:16.516Z,20.88
2017-11-10T01:40:25.525Z,20.74
2017-11-10T01:41:34.498Z,20.79
2017-11-10T01:42:43.828Z,20.82
2017-11-10T01:43:53.124Z,20.76
2017-11-10T01:45:02.755Z,20.88
2017-11-10T01:46:12.058Z,20.77
2017-11-10T01:47:21.696Z,20.84
2017-11-10T01:48:31.001Z,20.8
2017-11-10T01:49:40.341Z,20.79
2017-11-10T01:50:49.303Z,20.8
2017-11-10T01:51:57.959Z,20.74
2017-11-10T01:53:07.937Z,20.76
2017-11-10T01:54:17.253Z,20.72
2017-11-10T01:55:26.258Z,20.79
2017-11-10T01:56:35.904Z,20.87
2017-11-10T01:57:46.322Z,20.79
2017-11-10T01:58:55.634Z,20.76
2017-11-10T02:00:04.700Z,20.77
2017-11-10T02:01:14.025Z,20.82
2017-11-10T02:02:23.684Z,20.79
2017-11-10T02:03:32.657Z,20.77
2017-11-10T02:04:41.647Z,20.74
2017-11-10T02:05:50.299Z,20.82
2017-11-10T02:07:00.264Z,20.8
2017-11-10T02:08:09.566Z,20.79
2017-11-10T02:09:19.531Z,20.82
2017-11-10T02:10:29.161Z,20.79
2017-11-10T02:11:38.853Z,20.77
2017-11-10T02:12:48.523Z,20.8
2017-11-10T02:13:57.839Z,20.84
2017-11-10T02:15:06.812Z,20.77
2017-11-10T02:16:15.799Z,20.8
2017-11-10T02:17:25.429Z,20.73
2017-11-10T02:18:35.054Z,20.73
2017-11-10T02:19:44.025Z,20.8
2017-11-10T02:20:52.668Z,20.84
2017-11-10T02:22:02.307Z,20.85
2017-11-10T02:23:11.617Z,20.79
2017-11-10T02:24:21.248Z,20.8
2017-11-10T02:25:30.234Z,20.76
2017-11-10T02:26:39.859Z,20.8
2017-11-10T02:27:48.842Z,20.82
2017-11-10T02:28:57.814Z,20.77
2017-11-10T02:30:07.461Z,20.79
2017-11-10T02:31:17.106Z,20.77
2017-11-10T02:32:25.752Z,20.8
2017-11-10T02:33:34.744Z,20.82
2017-11-10T02:34:44.069Z,20.74
2017-11-10T02:35:53.369Z,20.8
2017-11-10T02:37:02.686Z,20.82
2017-11-10T02:38:12.348Z,20.82
2017-11-10T02:39:22.036Z,20.77
2017-11-10T02:40:31.674Z,20.79
2017-11-10T02:41:40.647Z,20.76
2017-11-10T02:42:50.306Z,20.84
2017-11-10T02:43:59.602Z,20.77
2017-11-10T02:45:08.262Z,20.77
2017-11-10T02:46:18.250Z,20.77
2017-11-10T02:47:27.226Z,20.84
2017-11-10T02:48:36.204Z,20.76
2017-11-10T02:49:45.846Z,20.74
2017-11-10T02:50:54.833Z,20.84
2017-11-10T02:52:04.487Z,20.77
2017-11-10T02:53:13.793Z,20.74
2017-11-10T02:54:22.454Z,20.79
2017-11-10T02:55:31.772Z,20.77
2017-11-10T02:56:41.436Z,20.79
2017-11-10T02:57:51.132Z,20.82
2017-11-10T02:59:00.411Z,20.77
2017-11-10T03:00:10.114Z,20.79
2017-11-10T03:01:18.770Z,20.85
2017-11-10T03:02:28.417Z,20.76
2017-11-10T03:03:37.384Z,20.8
2017-11-10T03:04:46.366Z,20.76
2017-11-10T03:05:56.680Z,20.76
2017-11-10T03:07:06.314Z,20.84
2017-11-10T03:08:15.613Z,20.84
2017-11-10T03:09:24.915Z,20.77
2017-11-10T03:10:33.922Z,20.8
2017-11-10T03:11:43.248Z,20.79
2017-11-10T03:12:52.574Z,20.74
2017-11-10T03:14:01.908Z,20.82
2017-11-10T03:15:11.203Z,20.82
2017-11-10T03:16:20.170Z,20.77
2017-11-10T03:17:29.149Z,20.85
2017-11-10T03:18:38.450Z,20.84
2017-11-10T03:19:48.081Z,20.82
2017-11-10T03:20:57.756Z,20.76
2017-11-10T03:22:07.047Z,20.82
2017-11-10T03:23:16.367Z,20.82
2017-11-10T03:24:25.670Z,20.85
2017-11-10T03:25:34.645Z,20.85
2017-11-10T03:26:43.616Z,20.74
2017-11-10T03:27:52.933Z,20.88
2017-11-10T03:29:02.580Z,20.8
2017-11-10T03:30:11.888Z,20.8
2017-11-10T03:31:21.525Z,20.84
2017-11-10T03:32:31.168Z,20.8
2017-11-10T03:33:41.120Z,20.84
2017-11-10T03:34:50.438Z,20.74
2017-11-10T03:36:00.413Z,20.73
2017-11-10T03:37:10.752Z,20.77
2017-11-10T03:38:20.386Z,20.85
2017-11-10T03:39:29.357Z,20.85
2017-11-10T03:40:38.661Z,20.79
2017-11-10T03:41:47.632Z,20.77
2017-11-10T03:42:57.596Z,20.76
2017-11-10T03:44:07.242Z,20.76
2017-11-10T03:45:16.901Z,20.77
2017-11-10T03:46:26.539Z,20.84
2017-11-10T03:47:36.192Z,20.77
2017-11-10T03:48:45.500Z,20.73
2017-11-10T03:49:54.816Z,20.77
2017-11-10T03:51:03.847Z,20.8
2017-11-10T03:52:13.797Z,20.8
2017-11-10T03:53:23.104Z,20.79
2017-11-10T03:54:32.075Z,20.77
2017-11-10T03:55:40.730Z,20.82
2017-11-10T03:56:50.043Z,20.8
2017-11-10T03:57:59.688Z,20.77
2017-11-10T03:59:09.340Z,20.79
2017-11-10T04:00:18.637Z,20.76
2017-11-10T04:01:27.624Z,20.77
2017-11-10T04:02:36.944Z,20.82
2017-11-10T04:03:46.904Z,20.76
2017-11-10T04:04:56.199Z,20.79
2017-11-10T04:06:05.171Z,20.8
2017-11-10T04:07:14.160Z,20.76
2017-11-10T04:08:23.511Z,20.8
2017-11-10T04:09:33.145Z,20.76
2017-11-10T04:10:42.116Z,20.77
2017-11-10T04:11:51.111Z,20.79
2017-11-10T04:13:00.732Z,20.74
2017-11-10T04:14:10.028Z,20.77
2017-11-10T04:15:19.014Z,20.84
2017-11-10T04:16:28.010Z,20.76
2017-11-10T04:17:37.329Z,20.84
2017-11-10T04:18:46.360Z,20.77
2017-11-10T04:19:55.332Z,20.88
2017-11-10T04:21:04.962Z,20.79
2017-11-10T04:22:14.260Z,20.77
2017-11-10T04:23:23.237Z,20.77
2017-11-10T04:24:32.538Z,20.77
2017-11-10T04:25:41.518Z,20.74
2017-11-10T04:26:50.836Z,20.85
2017-11-10T04:28:00.156Z,20.8
2017-11-10T04:29:10.105Z,20.77
2017-11-10T04:30:19.402Z,20.88
2017-11-10T04:31:28.700Z,20.77
2017-11-10T04:32:38.338Z,20.77
2017-11-10T04:33:47.962Z,20.79
2017-11-10T04:34:56.608Z,20.82
2017-11-10T04:36:05.904Z,20.77
2017-11-10T04:37:15.223Z,20.8
2017-11-10T04:38:24.530Z,20.85
2017-11-10T04:39:33.830Z,20.76
2017-11-10T04:40:42.464Z,20.79
2017-11-10T04:41:52.094Z,20.79
2017-11-10T04:43:01.096Z,20.74
2017-11-10T04:44:10.407Z,20.79
2017-11-10T04:45:20.042Z,20.82
2017-11-10T04:46:29.031Z,20.76
2017-11-10T04:47:38.333Z,20.77
2017-11-10T04:48:47.987Z,20.77
2017-11-10T04:49:57.654Z,20.74
2017-11-10T04:51:07.312Z,20.77
2017-11-10T04:52:16.612Z,20.77
2017-11-10T04:53:25.586Z,20.87
2017-11-10T04:54:34.551Z,20.85
2017-11-10T04:55:43.854Z,20.85
2017-11-10T04:56:53.490Z,20.73
2017-11-10T04:58:02.794Z,20.77
2017-11-10T04:59:11.772Z,20.8
2017-11-10T05:00:21.422Z,20.8
2017-11-10T05:01:31.383Z,20.77
2017-11-10T05:02:40.700Z,20.84
2017-11-10T05:03:50.560Z,20.84
2017-11-10T05:04:59.855Z,20.76
2017-11-10T05:06:09.827Z,20.76
2017-11-10T05:07:19.131Z,20.79
2017-11-10T05:08:28.457Z,20.79
2017-11-10T05:09:37.436Z,20.74
2017-11-10T05:10:46.411Z,20.8
2017-11-10T05:11:55.736Z,20.8
2017-11-10T05:13:04.721Z,20.77
2017-11-10T05:14:14.347Z,20.8
2017-11-10T05:15:23.329Z,20.77
2017-11-10T05:16:32.976Z,20.77
2017-11-10T05:17:42.311Z,20.8
2017-11-10T05:18:51.305Z,20.89
2017-11-10T05:20:00.469Z,20.8
2017-11-10T05:21:10.110Z,20.88
2017-11-10T05:22:19.415Z,20.84
2017-11-10T05:23:28.716Z,20.74
2017-11-10T05:24:38.357Z,20.76
2017-11-10T05:25:48.344Z,20.79
2017-11-10T05:26:57.648Z,20.84
2017-11-10T05:28:06.621Z,20.82
2017-11-10T05:29:15.605Z,20.77
2017-11-10T05:30:24.249Z,20.77
2017-11-10T05:31:34.223Z,20.74
2017-11-10T05:32:43.860Z,20.76
2017-11-10T05:33:53.167Z,20.79
2017-11-10T05:35:02.813Z,20.77
2017-11-10T05:36:12.773Z,20.85
2017-11-10T05:37:22.080Z,20.77
2017-11-10T05:38:32.067Z,20.82
2017-11-10T05:39:41.376Z,20.8
2017-11-10T05:40:51.011Z,20.76
2017-11-10T05:42:00.643Z,20.88
2017-11-10T05:43:09.947Z,20.77
2017-11-10T05:44:19.930Z,20.84
2017-11-10T05:45:29.256Z,20.8
2017-11-10T05:46:38.567Z,20.79
2017-11-10T05:47:47.542Z,20.82
2017-11-10T05:48:56.528Z,20.77
2017-11-10T05:50:06.171Z,20.84
2017-11-10T05:51:15.805Z,20.82
2017-11-10T05:52:25.434Z,20.7
2017-11-10T05:53:34.419Z,20.76
2017-11-10T05:54:43.415Z,20.76
2017-11-10T05:55:52.715Z,20.8
2017-11-10T05:57:02.347Z,20.77
2017-11-10T05:58:11.971Z,20.76
2017-11-10T05:59:21.601Z,20.85
2017-11-10T06:00:30.914Z,20.79
2017-11-10T06:01:41.225Z,20.87
2017-11-10T06:02:50.885Z,20.76
2017-11-10T06:04:00.539Z,20.87
2017-11-10T06:05:10.175Z,20.85
2017-11-10T06:06:19.489Z,20.89
2017-11-10T06:07:28.813Z,20.94
2017-11-10T06:08:37.451Z,20.98
2017-11-10T06:09:46.794Z,20.98
2017-11-10T06:10:56.428Z,21.07
2017-11-10T06:12:05.744Z,21.06
2017-11-10T06:13:15.049Z,21.13
2017-11-10T06:14:24.692Z,21.21
2017-11-10T06:15:33.682Z,21.25
2017-11-10T06:16:42.649Z,21.42
2017-11-10T06:17:51.965Z,21.34
2017-11-10T06:19:02.251Z,21.52
2017-11-10T06:20:11.549Z,21.52
2017-11-10T06:21:20.194Z,21.64
2017-11-10T06:22:29.241Z,21.64
2017-11-10T06:23:38.988Z,21.72
2017-11-10T06:24:48.672Z,21.86
2017-11-10T06:25:58.137Z,21.84
2017-11-10T06:27:07.139Z,21.88
2017-11-10T06:28:17.106Z,21.94
2017-11-10T06:29:26.736Z,21.96
2017-11-10T06:30:36.090Z,22.07
2017-11-10T06:31:45.422Z,22.15
2017-11-10T06:32:54.416Z,22.2
2017-11-10T06:34:03.730Z,22.22
2017-11-10T06:35:13.098Z,22.25
2017-11-10T06:36:22.085Z,22.37
2017-11-10T06:37:31.437Z,22.45
2017-11-10T06:38:41.416Z,22.49
2017-11-10T06:39:50.077Z,22.52
2017-11-10T06:40:59.077Z,22.61
2017-11-10T06:42:08.395Z,22.58
2017-11-10T06:43:17.062Z,22.58
2017-11-10T06:44:26.378Z,22.75
2017-11-10T06:45:36.046Z,22.79
2017-11-10T06:46:44.693Z,22.85
2017-11-10T06:47:54.007Z,22.8
2017-11-10T06:49:03.319Z,22.9
2017-11-10T06:50:13.011Z,22.97
2017-11-10T06:51:21.788Z,22.91
2017-11-10T06:52:31.208Z,22.97
2017-11-10T06:53:40.605Z,23.01
2017-11-10T06:54:50.051Z,23.05
2017-11-10T06:55:59.411Z,22.97
2017-11-10T06:57:08.398Z,23.05
2017-11-10T06:58:17.703Z,22.97
2017-11-10T06:59:26.992Z,22.91
2017-11-10T07:00:36.315Z,22.91
2017-11-10T07:01:45.651Z,22.86
2017-11-10T07:02:54.615Z,22.83
2017-11-10T07:04:03.596Z,22.79
2017-11-10T07:05:12.927Z,22.82
2017-11-10T07:06:22.231Z,22.76
2017-11-10T07:07:31.926Z,22.77
2017-11-10T07:08:40.603Z,22.7
2017-11-10T07:09:49.932Z,22.67
2017-11-10T07:10:59.268Z,22.58
2017-11-10T07:12:08.626Z,22.65
2017-11-10T07:13:17.947Z,22.67
2017-11-10T07:14:27.589Z,22.68
2017-11-10T07:15:37.226Z,22.67
2017-11-10T07:16:46.203Z,22.55
2017-11-10T07:17:55.816Z,22.61
2017-11-10T07:19:04.791Z,22.58
2017-11-10T07:20:14.111Z,22.58
2017-11-10T07:21:23.413Z,22.57
2017-11-10T07:22:33.078Z,22.61
2017-11-10T07:23:42.718Z,22.55
2017-11-10T07:24:52.019Z,22.55
2017-11-10T07:26:01.986Z,22.62
2017-11-10T07:27:10.695Z,22.57
2017-11-10T07:28:20.005Z,22.54
2017-11-10T07:29:29.311Z,22.55
2017-11-10T07:30:38.334Z,22.49
2017-11-10T07:31:47.982Z,22.61
2017-11-10T07:32:56.971Z,22.54
2017-11-10T07:34:05.955Z,22.43
2017-11-10T07:35:14.948Z,22.36
2017-11-10T07:36:24.601Z,22.49
2017-11-10T07:37:34.615Z,22.37
2017-11-10T07:38:43.623Z,22.39
2017-11-10T07:39:53.294Z,22.39
2017-11-10T07:41:01.961Z,22.4
2017-11-10T07:42:11.339Z,22.35
2017-11-10T07:43:20.987Z,22.33
2017-11-10T07:44:30.644Z,22.27
2017-11-10T07:45:39.721Z,22.33
2017-11-10T07:46:49.462Z,22.3
2017-11-10T07:47:58.819Z,22.27
2017-11-10T07:49:08.458Z,22.21
2017-11-10T07:50:17.448Z,22.3
2017-11-10T07:51:26.452Z,22.14
2017-11-10T07:52:35.792Z,22.17
2017-11-10T07:53:44.786Z,22.21
2017-11-10T07:54:54.419Z,22.2
2017-11-10T07:56:03.743Z,22.14
2017-11-10T07:57:13.047Z,22.17
2017-11-10T07:58:22.346Z,22.1
2017-11-10T07:59:31.340Z,22.07
2017-11-10T08:00:40.341Z,22.09
2017-11-10T08:01:48.997Z,22.07
2017-11-10T08:02:58.709Z,22.03
2017-11-10T08:04:08.693Z,22
2017-11-10T08:05:18.040Z,22.02
2017-11-10T08:06:27.020Z,21.99
2017-11-10T08:07:36.348Z,21.99
2017-11-10T08:08:46.322Z,21.96
2017-11-10T08:09:55.960Z,21.99
2017-11-10T08:11:04.618Z,21.99
2017-11-10T08:12:14.776Z,22
2017-11-10T08:13:24.216Z,21.94
2017-11-10T08:14:33.289Z,21.88
2017-11-10T08:15:43.091Z,21.94
2017-11-10T08:16:52.067Z,21.9
2017-11-10T08:18:02.027Z,21.96
2017-11-10T08:19:11.362Z,21.86
2017-11-10T08:20:20.011Z,21.88
2017-11-10T08:21:29.667Z,21.92
2017-11-10T08:22:38.330Z,21.9
2017-11-10T08:23:47.652Z,21.91
2017-11-10T08:24:56.631Z,21.94
2017-11-10T08:26:05.948Z,21.96
2017-11-10T08:27:15.299Z,21.91
2017-11-10T08:28:24.623Z,21.82
2017-11-10T08:29:34.258Z,21.9
2017-11-10T08:30:43.569Z,21.86
2017-11-10T08:31:53.273Z,21.82
2017-11-10T08:33:02.259Z,21.88
2017-11-10T08:34:11.559Z,21.8
2017-11-10T08:35:20.248Z,21.8
2017-11-10T08:36:29.890Z,21.82
2017-11-10T08:37:39.849Z,21.72
2017-11-10T08:38:49.175Z,21.79
2017-11-10T08:39:58.820Z,21.74
2017-11-10T08:41:07.815Z,21.71
2017-11-10T08:42:17.117Z,21.72
2017-11-10T08:43:27.103Z,21.75
2017-11-10T08:44:36.799Z,21.68
2017-11-10T08:45:45.789Z,21.71
2017-11-10T08:46:54.789Z,21.74
2017-11-10T08:48:04.454Z,21.71
2017-11-10T08:49:14.775Z,21.72
2017-11-10T08:50:24.436Z,21.71
2017-11-10T08:51:33.444Z,21.69
2017-11-10T08:52:43.098Z,21.65
2017-11-10T08:53:52.738Z,21.67
2017-11-10T08:55:02.382Z,21.68
2017-11-10T08:56:12.033Z,21.67
2017-11-10T08:57:21.688Z,21.68
2017-11-10T08:58:30.679Z,21.68
2017-11-10T08:59:40.011Z,21.62
2017-11-10T09:00:49.332Z,21.67
2017-11-10T09:01:59.004Z,21.61
2017-11-10T09:03:08.338Z,21.65
2017-11-10T09:04:17.318Z,21.62
2017-11-10T09:05:27.658Z,21.62
2017-11-10T09:06:36.984Z,21.65
2017-11-10T09:07:46.327Z,21.62
2017-11-10T09:08:55.989Z,21.65
2017-11-10T09:10:05.642Z,21.59
2017-11-10T09:11:14.960Z,21.67
2017-11-10T09:12:25.270Z,21.61
2017-11-10T09:13:34.600Z,21.65
2017-11-10T09:14:43.591Z,21.61
2017-11-10T09:15:53.284Z,21.61
2017-11-10T09:17:03.598Z,21.64
2017-11-10T09:18:12.921Z,21.61
2017-11-10T09:19:23.266Z,21.61
2017-11-10T09:20:32.600Z,21.65
2017-11-10T09:21:42.014Z,21.68
2017-11-10T09:22:50.997Z,21.62
2017-11-10T09:23:59.977Z,21.62
2017-11-10T09:25:09.976Z,21.64
2017-11-10T09:26:19.300Z,21.65
2017-11-10T09:27:28.957Z,21.67
2017-11-10T09:28:38.960Z,21.67
2017-11-10T09:29:48.287Z,21.64
2017-11-10T09:30:57.935Z,21.62
2017-11-10T09:32:06.597Z,21.59
2017-11-10T09:33:16.283Z,21.64
2017-11-10T09:34:25.936Z,21.69
2017-11-10T09:35:36.261Z,21.71
2017-11-10T09:36:45.606Z,21.64
2017-11-10T09:37:55.261Z,21.61
2017-11-10T09:39:05.287Z,21.64
2017-11-10T09:40:14.606Z,21.68
2017-11-10T09:41:24.237Z,21.65
2017-11-10T09:42:33.907Z,21.67
2017-11-10T09:43:43.232Z,21.71
2017-11-10T09:44:52.538Z,21.65
2017-11-10T09:46:02.233Z,21.61
2017-11-10T09:47:11.873Z,21.64
2017-11-10T09:48:21.851Z,21.64
2017-11-10T09:49:31.181Z,21.62
2017-11-10T09:50:40.170Z,21.65
2017-11-10T09:51:50.147Z,21.64
2017-11-10T09:52:59.472Z,21.61
2017-11-10T09:54:08.832Z,21.65
2017-11-10T09:55:18.122Z,21.62
2017-11-10T09:56:27.449Z,21.67
2017-11-10T09:57:37.457Z,21.65
2017-11-10T09:58:47.422Z,21.62
2017-11-10T09:59:56.108Z,21.62
2017-11-10T10:01:04.825Z,21.62
2017-11-10T10:02:14.145Z,21.61
2017-11-10T10:03:23.817Z,21.69
2017-11-10T10:04:33.491Z,21.65
2017-11-10T10:05:42.486Z,21.67
2017-11-10T10:06:51.816Z,21.71
2017-11-10T10:08:01.468Z,21.62
2017-11-10T10:09:11.121Z,21.68
2017-11-10T10:10:20.765Z,21.67
2017-11-10T10:11:30.139Z,21.69
2017-11-10T10:12:39.488Z,21.72
2017-11-10T10:13:49.478Z,21.72
2017-11-10T10:14:58.830Z,21.72
2017-11-10T10:16:08.155Z,21.79
2017-11-10T10:17:17.814Z,21.72
2017-11-10T10:18:27.139Z,21.74
2017-11-10T10:19:36.803Z,21.77
2017-11-10T10:20:46.150Z,21.72
2017-11-10T10:21:55.832Z,21.74
2017-11-10T10:23:05.829Z,21.72
2017-11-10T10:24:15.162Z,21.64
2017-11-10T10:25:25.136Z,21.69
2017-11-10T10:26:34.814Z,21.67
2017-11-10T10:27:44.198Z,21.62
2017-11-10T10:28:53.522Z,21.68
2017-11-10T10:30:03.506Z,21.72
2017-11-10T10:31:12.812Z,21.69
2017-11-10T10:32:21.808Z,21.69
2017-11-10T10:33:30.810Z,21.68
2017-11-10T10:34:40.446Z,21.68
2017-11-10T10:35:50.079Z,21.77
2017-11-10T10:36:59.408Z,21.67
2017-11-10T10:38:09.058Z,21.64
2017-11-10T10:39:18.382Z,21.67
2017-11-10T10:40:27.365Z,21.62
2017-11-10T10:41:37.339Z,21.68
2017-11-10T10:42:46.335Z,21.64
2017-11-10T10:43:56.318Z,21.64
2017-11-10T10:45:05.653Z,21.61
2017-11-10T10:46:14.979Z,21.65
2017-11-10T10:47:24.947Z,21.64
2017-11-10T10:48:34.268Z,21.61
2017-11-10T10:49:44.261Z,21.62
2017-11-10T10:50:52.921Z,21.65
2017-11-10T10:52:02.245Z,21.62
2017-11-10T10:53:12.215Z,21.61
2017-11-10T10:54:22.206Z,21.61
2017-11-10T10:55:31.850Z,21.61
2017-11-10T10:56:41.163Z,21.62
2017-11-10T10:57:50.157Z,21.69
2017-11-10T10:58:59.805Z,21.65
2017-11-10T11:00:09.837Z,21.61
2017-11-10T11:01:18.844Z,21.67
2017-11-10T11:02:28.826Z,21.64
2017-11-10T11:03:38.472Z,21.62
2017-11-10T11:04:48.442Z,21.59
2017-11-10T11:05:58.091Z,21.61
2017-11-10T11:07:07.807Z,21.61
2017-11-10T11:08:16.469Z,21.58
2017-11-10T11:09:25.790Z,21.62
2017-11-10T11:10:34.443Z,21.62
2017-11-10T11:11:44.083Z,21.67
2017-11-10T11:12:52.741Z,21.59
2017-11-10T11:14:02.058Z,21.64
2017-11-10T11:15:11.714Z,21.64
2017-11-10T11:16:21.685Z,21.68
2017-11-10T11:17:31.665Z,21.64
2017-11-10T11:18:40.312Z,21.64
2017-11-10T11:19:49.621Z,21.69
2017-11-10T11:20:58.937Z,21.64
2017-11-10T11:22:08.929Z,21.65
2017-11-10T11:23:17.917Z,21.65
2017-11-10T11:24:27.599Z,21.64
2017-11-10T11:25:36.595Z,21.67
2017-11-10T11:26:46.258Z,21.64
2017-11-10T11:27:55.938Z,21.65
2017-11-10T11:29:05.262Z,21.64
2017-11-10T11:30:14.250Z,21.65
2017-11-10T11:31:23.917Z,21.64
2017-11-10T11:32:33.556Z,21.65
2017-11-10T11:33:43.226Z,21.64
2017-11-10T11:34:52.862Z,21.64
2017-11-10T11:36:02.518Z,21.65
2017-11-10T11:37:11.844Z,21.67
2017-11-10T11:38:21.153Z,21.69
2017-11-10T11:39:30.144Z,21.68
2017-11-10T11:40:39.456Z,21.65
2017-11-10T11:41:48.787Z,21.68
2017-11-10T11:42:58.773Z,21.65
2017-11-10T11:44:08.413Z,21.62
2017-11-10T11:45:17.739Z,21.65
2017-11-10T11:46:27.086Z,21.68
2017-11-10T11:47:36.393Z,21.62
2017-11-10T11:48:46.371Z,21.65
2017-11-10T11:49:55.345Z,21.69
2017-11-10T11:51:05.313Z,21.67
2017-11-10T11:52:14.997Z,21.65
2017-11-10T11:53:24.967Z,21.65
2017-11-10T11:54:34.942Z,21.61
2017-11-10T11:55:44.634Z,21.67
2017-11-10T11:56:54.318Z,21.62
2017-11-10T11:58:03.608Z,21.62
2017-11-10T11:59:13.950Z,21.67
2017-11-10T12:00:23.273Z,21.67
2017-11-10T12:01:33.249Z,21.62
2017-11-10T12:02:43.235Z,21.62
2017-11-10T12:03:52.553Z,21.67
2017-11-10T12:05:01.543Z,21.64
2017-11-10T12:06:10.857Z,21.65
2017-11-10T12:07:20.215Z,21.67
2017-11-10T12:08:29.853Z,21.67
2017-11-10T12:09:39.487Z,21.62
2017-11-10T12:10:48.158Z,21.64
2017-11-10T12:11:57.154Z,21.64
2017-11-10T12:13:06.200Z,21.61
2017-11-10T12:14:15.211Z,21.67
2017-11-10T12:15:25.212Z,21.65
2017-11-10T12:16:34.880Z,21.59
2017-11-10T12:17:44.217Z,21.69
2017-11-10T12:18:53.907Z,21.61
2017-11-10T12:20:02.579Z,21.59
2017-11-10T12:21:12.228Z,21.61
2017-11-10T12:22:21.556Z,21.54
2017-11-10T12:23:30.860Z,21.59
2017-11-10T12:24:40.183Z,21.61
2017-11-10T12:25:50.174Z,21.54
2017-11-10T12:26:58.844Z,21.52
2017-11-10T12:28:08.496Z,21.58
2017-11-10T12:29:17.829Z,21.58
2017-11-10T12:30:27.492Z,21.54
2017-11-10T12:31:37.477Z,21.56
2017-11-10T12:32:47.511Z,21.53
2017-11-10T12:33:57.170Z,21.56
2017-11-10T12:35:06.492Z,21.56
2017-11-10T12:36:15.810Z,21.59
2017-11-10T12:37:25.794Z,21.5
2017-11-10T12:38:35.118Z,21.49
2017-11-10T12:39:44.765Z,21.52
2017-11-10T12:40:54.082Z,21.49
2017-11-10T12:42:04.074Z,21.46
2017-11-10T12:43:13.064Z,21.59
2017-11-10T12:44:22.059Z,21.49
2017-11-10T12:45:31.059Z,21.44
2017-11-10T12:46:40.369Z,21.53
2017-11-10T12:47:50.025Z,21.5
2017-11-10T12:48:59.682Z,21.43
2017-11-10T12:50:09.003Z,21.53
2017-11-10T12:51:18.326Z,21.49
2017-11-10T12:52:27.974Z,21.44
2017-11-10T12:53:37.669Z,21.49
2017-11-10T12:54:47.000Z,21.49
2017-11-10T12:55:56.633Z,21.49
2017-11-10T12:57:05.615Z,21.49
2017-11-10T12:58:14.946Z,21.49
2017-11-10T12:59:24.582Z,21.49
2017-11-10T13:00:33.554Z,21.5
2017-11-10T13:01:42.877Z,21.44
2017-11-10T13:02:52.532Z,21.43
2017-11-10T13:04:02.198Z,21.52
2017-11-10T13:05:11.868Z,21.43
2017-11-10T13:06:20.864Z,21.53
2017-11-10T13:07:29.843Z,21.44
2017-11-10T13:08:38.836Z,21.52
2017-11-10T13:09:48.146Z,21.54
2017-11-10T13:10:56.797Z,21.56
2017-11-10T13:12:06.112Z,21.5
2017-11-10T13:13:16.103Z,21.54
2017-11-10T13:14:25.758Z,21.54
2017-11-10T13:15:35.731Z,21.54
2017-11-10T13:16:45.386Z,21.56
2017-11-10T13:17:55.039Z,21.56
2017-11-10T13:19:05.041Z,21.58
2017-11-10T13:20:13.692Z,21.59
2017-11-10T13:21:22.706Z,21.58
2017-11-10T13:22:32.377Z,21.58
2017-11-10T13:23:42.016Z,21.58
2017-11-10T13:24:51.342Z,21.52
2017-11-10T13:26:00.989Z,21.53
2017-11-10T13:27:11.011Z,21.58
2017-11-10T13:28:20.360Z,21.5
2017-11-10T13:29:29.683Z,21.52
2017-11-10T13:30:39.013Z,21.5
2017-11-10T13:31:48.459Z,21.54
2017-11-10T13:32:57.826Z,21.56
2017-11-10T13:34:07.479Z,21.49
2017-11-10T13:35:17.489Z,21.59
2017-11-10T13:36:26.476Z,21.5
2017-11-10T13:37:36.136Z,21.5
2017-11-10T13:38:45.127Z,21.53
2017-11-10T13:39:55.129Z,21.56
2017-11-10T13:41:05.106Z,21.53
2017-11-10T13:42:14.421Z,21.5
2017-11-10T13:43:23.747Z,21.52
2017-11-10T13:44:33.388Z,21.54
2017-11-10T13:45:42.369Z,21.58
2017-11-10T13:46:52.352Z,21.58
2017-11-10T13:48:01.677Z,21.5
2017-11-10T13:49:10.651Z,21.53
2017-11-10T13:50:20.312Z,21.59
2017-11-10T13:51:29.959Z,21.54
2017-11-10T13:52:39.594Z,21.49
2017-11-10T13:53:48.286Z,21.52
2017-11-10T13:54:57.609Z,21.42
2017-11-10T13:56:07.282Z,21.5
2017-11-10T13:57:16.281Z,21.43
2017-11-10T13:58:26.258Z,21.52
2017-11-10T13:59:35.265Z,21.5
2017-11-10T14:00:44.247Z,21.46
2017-11-10T14:01:54.269Z,21.5
2017-11-10T14:03:03.619Z,21.43
2017-11-10T14:04:13.289Z,21.49
2017-11-10T14:05:22.277Z,21.46
2017-11-10T14:06:32.320Z,21.4
2017-11-10T14:07:41.644Z,21.44
2017-11-10T14:08:50.640Z,21.4
2017-11-10T14:09:59.632Z,21.43
2017-11-10T14:11:08.631Z,21.47
2017-11-10T14:12:17.632Z,21.37
2017-11-10T14:13:27.281Z,21.46
2017-11-10T14:14:36.286Z,21.49
2017-11-10T14:15:46.317Z,21.49
2017-11-10T14:16:55.665Z,21.4
2017-11-10T14:18:05.327Z,21.44
2017-11-10T14:19:14.661Z,21.47
2017-11-10T14:20:24.634Z,21.47
2017-11-10T14:21:34.321Z,21.4
2017-11-10T14:22:43.679Z,21.44
2017-11-10T14:23:53.016Z,21.43
2017-11-10T14:25:02.687Z,21.4
2017-11-10T14:26:12.006Z,21.49
2017-11-10T14:27:22.314Z,21.46
2017-11-10T14:28:31.316Z,21.5
2017-11-10T14:29:40.642Z,21.44
2017-11-10T14:30:49.996Z,21.37
2017-11-10T14:31:58.998Z,21.49
2017-11-10T14:33:08.681Z,21.44
2017-11-10T14:34:17.706Z,21.47
2017-11-10T14:35:27.019Z,21.4
2017-11-10T14:36:36.340Z,21.37
2017-11-10T14:37:46.323Z,21.43
2017-11-10T14:38:55.663Z,21.42
2017-11-10T14:40:05.328Z,21.42
2017-11-10T14:41:15.313Z,21.4
2017-11-10T14:42:24.652Z,21.4
2017-11-10T14:43:34.316Z,21.47
2017-11-10T14:44:44.304Z,21.47
2017-11-10T14:45:53.303Z,21.4
2017-11-10T14:47:03.037Z,21.37
2017-11-10T14:48:13.035Z,21.42
2017-11-10T14:49:22.354Z,21.38
2017-11-10T14:50:31.710Z,21.46
2017-11-10T14:51:41.716Z,21.44
2017-11-10T14:52:51.712Z,21.43
2017-11-10T14:54:01.377Z,21.47
2017-11-10T14:55:10.691Z,21.38
2017-11-10T14:56:20.063Z,21.32
2017-11-10T14:57:29.113Z,21.42